sensor_id;sensor_type;location;lat;lon;timestamp;temperature;humidity
72126;SHT31;59999;51.676;22.650;2022-09-01T00:02:25;11.37;82.76
72126;SHT31;59999;51.676;22.650;2022-09-01T00:04:54;11.33;83.03
72126;SHT31;59999;51.676;22.650;2022-09-01T00:07:24;11.29;83.13
72126;SHT31;59999;51.676;22.650;2022-09-01T00:09:50;11.26;83.29
72126;SHT31;59999;51.676;22.650;2022-09-01T00:12:17;11.23;83.43
72126;SHT31;59999;51.676;22.650;2022-09-01T00:14:43;11.20;83.45
72126;SHT31;59999;51.676;22.650;2022-09-01T00:17:10;11.19;83.59
72126;SHT31;59999;51.676;22.650;2022-09-01T00:19:37;11.18;83.70
72126;SHT31;59999;51.676;22.650;2022-09-01T00:22:05;11.16;83.72
72126;SHT31;59999;51.676;22.650;2022-09-01T00:24:31;11.12;83.80
72126;SHT31;59999;51.676;22.650;2022-09-01T00:26:58;11.08;83.90
72126;SHT31;59999;51.676;22.650;2022-09-01T00:29:24;11.06;84.04
72126;SHT31;59999;51.676;22.650;2022-09-01T00:31:51;11.01;84.07
72126;SHT31;59999;51.676;22.650;2022-09-01T00:34:18;10.92;84.26
72126;SHT31;59999;51.676;22.650;2022-09-01T00:36:44;10.89;84.56
72126;SHT31;59999;51.676;22.650;2022-09-01T00:39:10;10.85;84.78
72126;SHT31;59999;51.676;22.650;2022-09-01T00:41:38;10.81;84.89
72126;SHT31;59999;51.676;22.650;2022-09-01T00:44:10;10.79;85.08
72126;SHT31;59999;51.676;22.650;2022-09-01T00:46:40;10.74;85.29
72126;SHT31;59999;51.676;22.650;2022-09-01T00:51:55;10.71;85.70
72126;SHT31;59999;51.676;22.650;2022-09-01T00:54:34;10.67;85.75
72126;SHT31;59999;51.676;22.650;2022-09-01T00:57:02;10.63;85.92
72126;SHT31;59999;51.676;22.650;2022-09-01T00:59:29;10.63;85.94
72126;SHT31;59999;51.676;22.650;2022-09-01T01:01:56;10.60;86.04
72126;SHT31;59999;51.676;22.650;2022-09-01T01:04:23;10.58;86.01
72126;SHT31;59999;51.676;22.650;2022-09-01T01:06:53;10.57;85.96
72126;SHT31;59999;51.676;22.650;2022-09-01T01:09:29;10.56;86.14
72126;SHT31;59999;51.676;22.650;2022-09-01T01:11:57;10.56;85.97
72126;SHT31;59999;51.676;22.650;2022-09-01T01:14:25;10.56;86.12
72126;SHT31;59999;51.676;22.650;2022-09-01T01:16:58;10.54;86.07
72126;SHT31;59999;51.676;22.650;2022-09-01T01:19:51;10.48;86.17
72126;SHT31;59999;51.676;22.650;2022-09-01T01:28:24;10.41;86.30
72126;SHT31;59999;51.676;22.650;2022-09-01T01:30:59;10.37;86.32
72126;SHT31;59999;51.676;22.650;2022-09-01T01:33:31;10.34;86.44
72126;SHT31;59999;51.676;22.650;2022-09-01T01:35:57;10.30;86.45
72126;SHT31;59999;51.676;22.650;2022-09-01T01:38:24;10.26;86.69
72126;SHT31;59999;51.676;22.650;2022-09-01T01:40:53;10.20;86.94
72126;SHT31;59999;51.676;22.650;2022-09-01T01:43:22;10.16;87.06
72126;SHT31;59999;51.676;22.650;2022-09-01T01:45:50;10.08;87.17
72126;SHT31;59999;51.676;22.650;2022-09-01T01:48:18;10.02;87.44
72126;SHT31;59999;51.676;22.650;2022-09-01T01:50:49;9.93;87.54
72126;SHT31;59999;51.676;22.650;2022-09-01T01:53:15;9.90;87.71
72126;SHT31;59999;51.676;22.650;2022-09-01T01:55:45;9.85;87.94
72126;SHT31;59999;51.676;22.650;2022-09-01T01:58:16;9.79;88.21
72126;SHT31;59999;51.676;22.650;2022-09-01T02:00:45;9.74;88.47
72126;SHT31;59999;51.676;22.650;2022-09-01T02:03:16;9.69;88.66
72126;SHT31;59999;51.676;22.650;2022-09-01T02:05:46;9.68;88.81
72126;SHT31;59999;51.676;22.650;2022-09-01T02:08:12;9.65;89.03
72126;SHT31;59999;51.676;22.650;2022-09-01T02:10:43;9.61;89.14
72126;SHT31;59999;51.676;22.650;2022-09-01T02:13:12;9.59;89.27
72126;SHT31;59999;51.676;22.650;2022-09-01T02:15:44;9.61;89.33
72126;SHT31;59999;51.676;22.650;2022-09-01T02:18:18;9.57;89.45
72126;SHT31;59999;51.676;22.650;2022-09-01T02:20:47;9.58;89.41
72126;SHT31;59999;51.676;22.650;2022-09-01T02:23:14;9.55;89.42
72126;SHT31;59999;51.676;22.650;2022-09-01T02:25:44;9.52;89.37
72126;SHT31;59999;51.676;22.650;2022-09-01T02:28:12;9.55;89.63
72126;SHT31;59999;51.676;22.650;2022-09-01T02:30:45;9.52;89.65
72126;SHT31;59999;51.676;22.650;2022-09-01T02:33:12;9.48;89.64
72126;SHT31;59999;51.676;22.650;2022-09-01T02:35:49;9.44;89.63
72126;SHT31;59999;51.676;22.650;2022-09-01T02:38:16;9.40;89.85
72126;SHT31;59999;51.676;22.650;2022-09-01T02:40:43;9.37;90.05
72126;SHT31;59999;51.676;22.650;2022-09-01T02:43:12;9.35;90.15
72126;SHT31;59999;51.676;22.650;2022-09-01T02:45:38;9.34;90.22
72126;SHT31;59999;51.676;22.650;2022-09-01T02:48:05;9.31;90.32
72126;SHT31;59999;51.676;22.650;2022-09-01T02:50:36;9.27;90.23
72126;SHT31;59999;51.676;22.650;2022-09-01T02:53:02;9.27;90.18
72126;SHT31;59999;51.676;22.650;2022-09-01T02:55:38;9.21;90.20
72126;SHT31;59999;51.676;22.650;2022-09-01T02:58:05;9.17;90.18
72126;SHT31;59999;51.676;22.650;2022-09-01T03:00:35;9.11;90.34
72126;SHT31;59999;51.676;22.650;2022-09-01T03:03:05;9.13;90.61
72126;SHT31;59999;51.676;22.650;2022-09-01T03:05:33;9.07;90.76
72126;SHT31;59999;51.676;22.650;2022-09-01T03:08:02;9.03;90.83
72126;SHT31;59999;51.676;22.650;2022-09-01T03:10:32;9.02;90.89
72126;SHT31;59999;51.676;22.650;2022-09-01T03:13:07;8.97;91.03
72126;SHT31;59999;51.676;22.650;2022-09-01T03:15:35;8.93;91.00
72126;SHT31;59999;51.676;22.650;2022-09-01T03:18:03;8.89;91.11
72126;SHT31;59999;51.676;22.650;2022-09-01T03:20:31;8.84;91.28
72126;SHT31;59999;51.676;22.650;2022-09-01T03:22:59;8.79;91.49
72126;SHT31;59999;51.676;22.650;2022-09-01T03:25:26;8.73;91.55
72126;SHT31;59999;51.676;22.650;2022-09-01T03:27:55;8.73;91.72
72126;SHT31;59999;51.676;22.650;2022-09-01T03:30:23;8.68;91.76
72126;SHT31;59999;51.676;22.650;2022-09-01T03:32:50;8.68;91.82
72126;SHT31;59999;51.676;22.650;2022-09-01T03:35:16;8.62;91.85
72126;SHT31;59999;51.676;22.650;2022-09-01T03:37:43;8.59;92.02
72126;SHT31;59999;51.676;22.650;2022-09-01T03:40:11;8.56;92.11
72126;SHT31;59999;51.676;22.650;2022-09-01T03:42:38;8.58;92.16
72126;SHT31;59999;51.676;22.650;2022-09-01T03:45:05;8.55;92.18
72126;SHT31;59999;51.676;22.650;2022-09-01T03:47:35;8.54;92.29
72126;SHT31;59999;51.676;22.650;2022-09-01T03:50:07;8.55;92.38
72126;SHT31;59999;51.676;22.650;2022-09-01T03:52:55;8.55;92.47
72126;SHT31;59999;51.676;22.650;2022-09-01T03:55:24;8.58;92.55
72126;SHT31;59999;51.676;22.650;2022-09-01T03:58:05;8.56;92.42
72126;SHT31;59999;51.676;22.650;2022-09-01T04:00:34;8.58;92.52
72126;SHT31;59999;51.676;22.650;2022-09-01T04:03:02;8.62;92.42
72126;SHT31;59999;51.676;22.650;2022-09-01T04:05:30;8.59;92.50
72126;SHT31;59999;51.676;22.650;2022-09-01T04:08:00;8.58;92.34
72126;SHT31;59999;51.676;22.650;2022-09-01T04:10:29;8.56;92.37
72126;SHT31;59999;51.676;22.650;2022-09-01T04:12:58;8.55;92.46
72126;SHT31;59999;51.676;22.650;2022-09-01T04:15:26;8.55;92.72
72126;SHT31;59999;51.676;22.650;2022-09-01T04:17:53;8.58;92.76
72126;SHT31;59999;51.676;22.650;2022-09-01T04:20:47;8.61;92.88
72126;SHT31;59999;51.676;22.650;2022-09-01T04:23:22;8.65;93.01
72126;SHT31;59999;51.676;22.650;2022-09-01T04:25:57;8.69;92.98
72126;SHT31;59999;51.676;22.650;2022-09-01T04:28:30;8.76;92.96
72126;SHT31;59999;51.676;22.650;2022-09-01T04:30:59;8.83;92.94
72126;SHT31;59999;51.676;22.650;2022-09-01T04:33:31;8.86;92.88
72126;SHT31;59999;51.676;22.650;2022-09-01T04:36:06;8.92;92.86
72126;SHT31;59999;51.676;22.650;2022-09-01T04:38:38;9.00;92.73
72126;SHT31;59999;51.676;22.650;2022-09-01T04:41:05;9.07;92.78
72126;SHT31;59999;51.676;22.650;2022-09-01T04:43:32;9.17;92.77
72126;SHT31;59999;51.676;22.650;2022-09-01T04:45:58;9.32;92.29
72126;SHT31;59999;51.676;22.650;2022-09-01T04:48:24;9.47;92.04
72126;SHT31;59999;51.676;22.650;2022-09-01T04:50:51;9.58;91.64
72126;SHT31;59999;51.676;22.650;2022-09-01T04:53:17;9.72;91.29
72126;SHT31;59999;51.676;22.650;2022-09-01T04:55:45;9.81;90.93
72126;SHT31;59999;51.676;22.650;2022-09-01T04:58:15;9.89;90.24
72126;SHT31;59999;51.676;22.650;2022-09-01T05:00:45;10.02;89.90
72126;SHT31;59999;51.676;22.650;2022-09-01T05:03:13;10.10;89.40
72126;SHT31;59999;51.676;22.650;2022-09-01T05:05:41;10.20;89.22
72126;SHT31;59999;51.676;22.650;2022-09-01T05:08:14;10.21;88.83
72126;SHT31;59999;51.676;22.650;2022-09-01T05:10:47;10.33;88.45
72126;SHT31;59999;51.676;22.650;2022-09-01T05:13:15;10.44;87.84
72126;SHT31;59999;51.676;22.650;2022-09-01T05:15:46;10.54;87.77
72126;SHT31;59999;51.676;22.650;2022-09-01T05:18:17;10.71;87.15
72126;SHT31;59999;51.676;22.650;2022-09-01T05:20:49;10.79;86.38
72126;SHT31;59999;51.676;22.650;2022-09-01T05:23:15;10.91;85.98
72126;SHT31;59999;51.676;22.650;2022-09-01T05:25:49;11.02;85.44
72126;SHT31;59999;51.676;22.650;2022-09-01T05:28:17;11.15;85.08
72126;SHT31;59999;51.676;22.650;2022-09-01T05:30:45;11.26;84.88
72126;SHT31;59999;51.676;22.650;2022-09-01T05:33:13;11.42;84.65
72126;SHT31;59999;51.676;22.650;2022-09-01T05:35:52;11.53;84.20
72126;SHT31;59999;51.676;22.650;2022-09-01T05:38:20;11.71;83.92
72126;SHT31;59999;51.676;22.650;2022-09-01T05:40:55;11.88;83.14
72126;SHT31;59999;51.676;22.650;2022-09-01T05:43:22;11.99;82.28
72126;SHT31;59999;51.676;22.650;2022-09-01T05:45:51;12.14;82.00
72126;SHT31;59999;51.676;22.650;2022-09-01T05:48:18;12.28;82.02
72126;SHT31;59999;51.676;22.650;2022-09-01T05:50:49;12.41;80.29
72126;SHT31;59999;51.676;22.650;2022-09-01T05:53:17;12.46;80.81
72126;SHT31;59999;51.676;22.650;2022-09-01T05:55:46;12.59;80.24
72126;SHT31;59999;51.676;22.650;2022-09-01T05:58:15;12.72;79.64
72126;SHT31;59999;51.676;22.650;2022-09-01T06:00:42;12.86;79.17
72126;SHT31;59999;51.676;22.650;2022-09-01T06:03:12;12.96;78.28
72126;SHT31;59999;51.676;22.650;2022-09-01T06:05:39;13.04;77.31
72126;SHT31;59999;51.676;22.650;2022-09-01T06:08:06;13.12;77.11
72126;SHT31;59999;51.676;22.650;2022-09-01T06:10:36;13.27;76.91
72126;SHT31;59999;51.676;22.650;2022-09-01T06:13:08;13.35;76.14
72126;SHT31;59999;51.676;22.650;2022-09-01T06:15:36;13.41;76.34
72126;SHT31;59999;51.676;22.650;2022-09-01T06:18:06;13.51;75.75
72126;SHT31;59999;51.676;22.650;2022-09-01T06:20:32;13.63;75.47
72126;SHT31;59999;51.676;22.650;2022-09-01T06:22:59;13.76;75.86
72126;SHT31;59999;51.676;22.650;2022-09-01T06:25:25;13.91;75.23
72126;SHT31;59999;51.676;22.650;2022-09-01T06:27:55;13.95;74.19
72126;SHT31;59999;51.676;22.650;2022-09-01T06:30:22;14.02;74.20
72126;SHT31;59999;51.676;22.650;2022-09-01T06:32:54;14.14;74.35
72126;SHT31;59999;51.676;22.650;2022-09-01T06:35:22;14.30;74.63
72126;SHT31;59999;51.676;22.650;2022-09-01T06:37:55;14.52;74.40
72126;SHT31;59999;51.676;22.650;2022-09-01T06:40:21;14.68;73.53
72126;SHT31;59999;51.676;22.650;2022-09-01T06:42:51;14.71;72.21
72126;SHT31;59999;51.676;22.650;2022-09-01T06:45:21;14.82;72.68
72126;SHT31;59999;51.676;22.650;2022-09-01T06:47:48;14.95;71.72
72126;SHT31;59999;51.676;22.650;2022-09-01T06:50:18;15.09;71.63
72126;SHT31;59999;51.676;22.650;2022-09-01T06:52:48;15.20;71.05
72126;SHT31;59999;51.676;22.650;2022-09-01T06:55:28;15.40;70.89
72126;SHT31;59999;51.676;22.650;2022-09-01T06:57:58;15.55;70.21
72126;SHT31;59999;51.676;22.650;2022-09-01T07:00:24;15.65;68.17
72126;SHT31;59999;51.676;22.650;2022-09-01T07:02:55;15.68;68.78
72126;SHT31;59999;51.676;22.650;2022-09-01T07:05:23;15.75;69.28
72126;SHT31;59999;51.676;22.650;2022-09-01T07:07:51;15.84;68.75
72126;SHT31;59999;51.676;22.650;2022-09-01T07:10:26;15.90;66.35
72126;SHT31;59999;51.676;22.650;2022-09-01T07:12:56;15.92;66.82
72126;SHT31;59999;51.676;22.650;2022-09-01T07:15:26;16.01;66.35
72126;SHT31;59999;51.676;22.650;2022-09-01T07:17:57;16.08;66.18
72126;SHT31;59999;51.676;22.650;2022-09-01T07:20:25;16.09;65.10
72126;SHT31;59999;51.676;22.650;2022-09-01T07:22:54;16.16;65.58
72126;SHT31;59999;51.676;22.650;2022-09-01T07:25:20;16.25;65.97
72126;SHT31;59999;51.676;22.650;2022-09-01T07:27:46;16.36;63.54
72126;SHT31;59999;51.676;22.650;2022-09-01T07:30:16;16.32;63.76
72126;SHT31;59999;51.676;22.650;2022-09-01T07:32:44;16.40;63.06
72126;SHT31;59999;51.676;22.650;2022-09-01T07:35:12;16.43;63.00
72126;SHT31;59999;51.676;22.650;2022-09-01T07:37:38;16.57;62.34
72126;SHT31;59999;51.676;22.650;2022-09-01T07:40:08;16.61;60.82
72126;SHT31;59999;51.676;22.650;2022-09-01T07:42:35;16.61;60.69
72126;SHT31;59999;51.676;22.650;2022-09-01T07:45:07;16.64;61.15
72126;SHT31;59999;51.676;22.650;2022-09-01T07:47:34;16.68;59.75
72126;SHT31;59999;51.676;22.650;2022-09-01T07:50:05;16.76;61.38
72126;SHT31;59999;51.676;22.650;2022-09-01T07:52:36;16.78;58.24
72126;SHT31;59999;51.676;22.650;2022-09-01T07:55:05;16.84;57.96
72126;SHT31;59999;51.676;22.650;2022-09-01T07:57:35;16.84;57.41
72126;SHT31;59999;51.676;22.650;2022-09-01T08:00:03;16.89;58.23
72126;SHT31;59999;51.676;22.650;2022-09-01T08:02:30;16.98;58.46
72126;SHT31;59999;51.676;22.650;2022-09-01T08:04:57;17.07;58.26
72126;SHT31;59999;51.676;22.650;2022-09-01T08:07:23;17.19;59.51
72126;SHT31;59999;51.676;22.650;2022-09-01T08:09:49;17.32;55.85
72126;SHT31;59999;51.676;22.650;2022-09-01T08:12:15;17.40;57.21
72126;SHT31;59999;51.676;22.650;2022-09-01T08:14:41;17.47;52.90
72126;SHT31;59999;51.676;22.650;2022-09-01T08:17:07;17.46;53.74
72126;SHT31;59999;51.676;22.650;2022-09-01T08:19:33;17.40;53.84
72126;SHT31;59999;51.676;22.650;2022-09-01T08:22:00;17.45;53.71
72126;SHT31;59999;51.676;22.650;2022-09-01T08:24:27;17.49;53.90
72126;SHT31;59999;51.676;22.650;2022-09-01T08:26:52;17.59;53.45
72126;SHT31;59999;51.676;22.650;2022-09-01T08:29:18;17.57;52.27
72126;SHT31;59999;51.676;22.650;2022-09-01T08:31:46;17.66;52.88
72126;SHT31;59999;51.676;22.650;2022-09-01T08:34:12;17.82;49.78
72126;SHT31;59999;51.676;22.650;2022-09-01T08:36:38;17.94;50.38
72126;SHT31;59999;51.676;22.650;2022-09-01T08:39:04;18.13;51.27
72126;SHT31;59999;51.676;22.650;2022-09-01T08:44:43;18.03;49.11
72126;SHT31;59999;51.676;22.650;2022-09-01T08:47:14;17.91;47.95
72126;SHT31;59999;51.676;22.650;2022-09-01T08:49:42;17.87;48.34
72126;SHT31;59999;51.676;22.650;2022-09-01T08:52:29;17.89;48.60
72126;SHT31;59999;51.676;22.650;2022-09-01T08:55:02;17.90;47.81
72126;SHT31;59999;51.676;22.650;2022-09-01T08:57:36;17.91;46.56
72126;SHT31;59999;51.676;22.650;2022-09-01T09:00:07;17.98;47.32
72126;SHT31;59999;51.676;22.650;2022-09-01T09:02:52;18.07;46.10
72126;SHT31;59999;51.676;22.650;2022-09-01T09:05:34;18.07;47.44
72126;SHT31;59999;51.676;22.650;2022-09-01T09:16:31;18.32;46.62
72126;SHT31;59999;51.676;22.650;2022-09-01T09:19:35;18.17;46.69
72126;SHT31;59999;51.676;22.650;2022-09-01T09:22:07;18.17;47.35
72126;SHT31;59999;51.676;22.650;2022-09-01T09:27:24;18.27;48.46
72126;SHT31;59999;51.676;22.650;2022-09-01T09:29:57;18.45;49.68
72126;SHT31;59999;51.676;22.650;2022-09-01T09:32:50;18.52;47.78
72126;SHT31;59999;51.676;22.650;2022-09-01T09:35:24;18.61;48.05
72126;SHT31;59999;51.676;22.650;2022-09-01T09:37:50;18.71;50.01
72126;SHT31;59999;51.676;22.650;2022-09-01T09:40:23;18.81;48.83
72126;SHT31;59999;51.676;22.650;2022-09-01T09:45:38;18.61;48.75
72126;SHT31;59999;51.676;22.650;2022-09-01T09:48:07;18.68;49.99
72126;SHT31;59999;51.676;22.650;2022-09-01T09:50:39;18.83;49.33
72126;SHT31;59999;51.676;22.650;2022-09-01T09:53:27;18.98;47.59
72126;SHT31;59999;51.676;22.650;2022-09-01T09:56:02;19.04;47.78
72126;SHT31;59999;51.676;22.650;2022-09-01T09:58:36;19.06;46.67
72126;SHT31;59999;51.676;22.650;2022-09-01T10:03:43;19.14;47.21
72126;SHT31;59999;51.676;22.650;2022-09-01T10:09:02;19.20;45.02
72126;SHT31;59999;51.676;22.650;2022-09-01T10:11:41;19.34;46.53
72126;SHT31;59999;51.676;22.650;2022-09-01T10:14:37;19.54;45.26
72126;SHT31;59999;51.676;22.650;2022-09-01T10:17:20;19.79;45.91
72126;SHT31;59999;51.676;22.650;2022-09-01T10:19:57;19.89;46.49
72126;SHT31;59999;51.676;22.650;2022-09-01T10:22:27;19.69;45.11
72126;SHT31;59999;51.676;22.650;2022-09-01T10:24:53;19.48;44.01
72126;SHT31;59999;51.676;22.650;2022-09-01T10:27:29;19.37;45.93
72126;SHT31;59999;51.676;22.650;2022-09-01T10:30:13;19.35;44.96
72126;SHT31;59999;51.676;22.650;2022-09-01T10:32:48;19.21;44.98
72126;SHT31;59999;51.676;22.650;2022-09-01T10:35:25;19.04;44.77
72126;SHT31;59999;51.676;22.650;2022-09-01T10:37:53;18.96;45.72
72126;SHT31;59999;51.676;22.650;2022-09-01T10:42:56;18.95;47.61
72126;SHT31;59999;51.676;22.650;2022-09-01T10:45:35;19.16;46.87
72126;SHT31;59999;51.676;22.650;2022-09-01T10:48:24;19.19;45.33
72126;SHT31;59999;51.676;22.650;2022-09-01T10:50:53;19.07;45.64
72126;SHT31;59999;51.676;22.650;2022-09-01T10:56:16;19.30;45.27
72126;SHT31;59999;51.676;22.650;2022-09-01T11:04:21;20.37;42.61
72126;SHT31;59999;51.676;22.650;2022-09-01T11:09:32;19.89;41.36
72126;SHT31;59999;51.676;22.650;2022-09-01T11:14:57;19.23;44.37
72126;SHT31;59999;51.676;22.650;2022-09-01T11:17:26;19.03;45.59
72126;SHT31;59999;51.676;22.650;2022-09-01T11:20:21;18.98;45.70
72126;SHT31;59999;51.676;22.650;2022-09-01T11:23:23;18.88;45.57
72126;SHT31;59999;51.676;22.650;2022-09-01T11:25:53;18.99;46.00
72126;SHT31;59999;51.676;22.650;2022-09-01T11:36:59;19.65;45.31
72126;SHT31;59999;51.676;22.650;2022-09-01T11:39:35;20.00;43.84
72126;SHT31;59999;51.676;22.650;2022-09-01T11:47:42;20.27;42.22
72126;SHT31;59999;51.676;22.650;2022-09-01T11:52:41;20.29;44.56
72126;SHT31;59999;51.676;22.650;2022-09-01T11:55:07;20.44;43.18
72126;SHT31;59999;51.676;22.650;2022-09-01T11:57:39;20.54;42.35
72126;SHT31;59999;51.676;22.650;2022-09-01T12:00:11;20.70;43.42
72126;SHT31;59999;51.676;22.650;2022-09-01T12:02:48;20.81;42.54
72126;SHT31;59999;51.676;22.650;2022-09-01T12:07:53;21.09;40.83
72126;SHT31;59999;51.676;22.650;2022-09-01T12:10:28;21.28;41.65
72126;SHT31;59999;51.676;22.650;2022-09-01T12:13:06;21.19;40.64
72126;SHT31;59999;51.676;22.650;2022-09-01T12:15:40;21.11;40.99
72126;SHT31;59999;51.676;22.650;2022-09-01T12:18:16;20.94;41.55
72126;SHT31;59999;51.676;22.650;2022-09-01T12:20:45;20.57;42.77
72126;SHT31;59999;51.676;22.650;2022-09-01T12:25:41;20.85;42.37
72126;SHT31;59999;51.676;22.650;2022-09-01T12:28:07;20.94;41.88
72126;SHT31;59999;51.676;22.650;2022-09-01T12:30:33;21.29;42.23
72126;SHT31;59999;51.676;22.650;2022-09-01T12:33:09;21.52;39.89
72126;SHT31;59999;51.676;22.650;2022-09-01T12:35:36;21.74;39.12
72126;SHT31;59999;51.676;22.650;2022-09-01T12:38:22;21.80;39.48
72126;SHT31;59999;51.676;22.650;2022-09-01T12:40:51;21.73;39.26
72126;SHT31;59999;51.676;22.650;2022-09-01T12:43:38;21.39;39.83
72126;SHT31;59999;51.676;22.650;2022-09-01T12:46:07;20.99;39.85
72126;SHT31;59999;51.676;22.650;2022-09-01T12:48:37;20.54;42.28
72126;SHT31;59999;51.676;22.650;2022-09-01T12:51:23;20.32;42.47
72126;SHT31;59999;51.676;22.650;2022-09-01T12:54:00;20.06;42.80
72126;SHT31;59999;51.676;22.650;2022-09-01T12:56:29;20.00;44.04
72126;SHT31;59999;51.676;22.650;2022-09-01T12:59:12;19.85;44.86
72126;SHT31;59999;51.676;22.650;2022-09-01T13:01:40;19.83;44.96
72126;SHT31;59999;51.676;22.650;2022-09-01T13:06:48;19.78;45.79
72126;SHT31;59999;51.676;22.650;2022-09-01T13:09:14;19.72;45.11
72126;SHT31;59999;51.676;22.650;2022-09-01T13:11:41;19.59;45.99
72126;SHT31;59999;51.676;22.650;2022-09-01T13:14:08;19.50;47.06
72126;SHT31;59999;51.676;22.650;2022-09-01T13:16:34;19.35;47.54
72126;SHT31;59999;51.676;22.650;2022-09-01T13:19:02;19.31;47.84
72126;SHT31;59999;51.676;22.650;2022-09-01T13:21:29;19.43;47.57
72126;SHT31;59999;51.676;22.650;2022-09-01T13:23:55;19.54;48.05
72126;SHT31;59999;51.676;22.650;2022-09-01T13:26:21;19.64;48.15
72126;SHT31;59999;51.676;22.650;2022-09-01T13:28:48;19.72;47.27
72126;SHT31;59999;51.676;22.650;2022-09-01T13:31:15;19.69;47.34
72126;SHT31;59999;51.676;22.650;2022-09-01T13:33:41;19.74;47.01
72126;SHT31;59999;51.676;22.650;2022-09-01T13:36:08;19.65;47.48
72126;SHT31;59999;51.676;22.650;2022-09-01T13:38:34;19.68;47.04
72126;SHT31;59999;51.676;22.650;2022-09-01T13:41:00;19.61;46.75
72126;SHT31;59999;51.676;22.650;2022-09-01T13:43:28;19.48;47.05
72126;SHT31;59999;51.676;22.650;2022-09-01T13:45:56;19.35;47.54
72126;SHT31;59999;51.676;22.650;2022-09-01T13:48:22;19.32;47.89
72126;SHT31;59999;51.676;22.650;2022-09-01T13:50:50;19.23;47.92
72126;SHT31;59999;51.676;22.650;2022-09-01T13:53:17;19.19;48.06
72126;SHT31;59999;51.676;22.650;2022-09-01T13:55:43;19.24;48.27
72126;SHT31;59999;51.676;22.650;2022-09-01T13:58:09;19.38;49.07
72126;SHT31;59999;51.676;22.650;2022-09-01T14:00:39;19.48;47.04
72126;SHT31;59999;51.676;22.650;2022-09-01T14:03:09;19.55;47.15
72126;SHT31;59999;51.676;22.650;2022-09-01T14:05:41;19.61;47.30
72126;SHT31;59999;51.676;22.650;2022-09-01T14:08:09;19.71;47.31
72126;SHT31;59999;51.676;22.650;2022-09-01T14:10:42;19.69;46.04
72126;SHT31;59999;51.676;22.650;2022-09-01T14:13:10;19.79;46.57
72126;SHT31;59999;51.676;22.650;2022-09-01T14:15:36;19.88;46.47
72126;SHT31;59999;51.676;22.650;2022-09-01T14:18:03;19.99;45.02
72126;SHT31;59999;51.676;22.650;2022-09-01T14:20:34;20.12;44.80
72126;SHT31;59999;51.676;22.650;2022-09-01T14:23:03;20.25;44.39
72126;SHT31;59999;51.676;22.650;2022-09-01T14:25:31;20.57;43.60
72126;SHT31;59999;51.676;22.650;2022-09-01T14:27:58;20.99;43.43
72126;SHT31;59999;51.676;22.650;2022-09-01T14:30:27;20.98;41.91
72126;SHT31;59999;51.676;22.650;2022-09-01T14:32:54;20.75;42.98
72126;SHT31;59999;51.676;22.650;2022-09-01T14:35:21;20.98;41.40
72126;SHT31;59999;51.676;22.650;2022-09-01T14:37:52;21.39;40.34
72126;SHT31;59999;51.676;22.650;2022-09-01T14:40:20;21.87;40.42
72126;SHT31;59999;51.676;22.650;2022-09-01T14:42:49;22.35;39.64
72126;SHT31;59999;51.676;22.650;2022-09-01T14:45:22;22.85;36.38
72126;SHT31;59999;51.676;22.650;2022-09-01T14:47:51;23.06;37.97
72126;SHT31;59999;51.676;22.650;2022-09-01T14:50:19;23.47;37.94
72126;SHT31;59999;51.676;22.650;2022-09-01T14:52:47;23.53;36.08
72126;SHT31;59999;51.676;22.650;2022-09-01T14:55:14;23.33;36.84
72126;SHT31;59999;51.676;22.650;2022-09-01T14:57:40;22.49;38.98
72126;SHT31;59999;51.676;22.650;2022-09-01T15:00:08;21.64;41.34
72126;SHT31;59999;51.676;22.650;2022-09-01T15:02:35;20.91;43.97
72126;SHT31;59999;51.676;22.650;2022-09-01T15:05:02;20.34;45.15
72126;SHT31;59999;51.676;22.650;2022-09-01T15:07:28;19.92;46.63
72126;SHT31;59999;51.676;22.650;2022-09-01T15:09:55;19.89;47.06
72126;SHT31;59999;51.676;22.650;2022-09-01T15:12:23;19.93;46.46
72126;SHT31;59999;51.676;22.650;2022-09-01T15:14:50;19.88;45.97
72126;SHT31;59999;51.676;22.650;2022-09-01T15:17:16;19.71;46.14
72126;SHT31;59999;51.676;22.650;2022-09-01T15:19:42;19.99;45.45
72126;SHT31;59999;51.676;22.650;2022-09-01T15:22:08;20.40;44.88
72126;SHT31;59999;51.676;22.650;2022-09-01T15:24:35;21.01;43.11
72126;SHT31;59999;51.676;22.650;2022-09-01T15:27:01;21.46;41.97
72126;SHT31;59999;51.676;22.650;2022-09-01T15:29:27;22.00;40.77
72126;SHT31;59999;51.676;22.650;2022-09-01T15:31:59;22.51;39.68
72126;SHT31;59999;51.676;22.650;2022-09-01T15:34:26;22.83;38.66
72126;SHT31;59999;51.676;22.650;2022-09-01T15:36:52;23.11;37.92
72126;SHT31;59999;51.676;22.650;2022-09-01T15:39:18;23.38;37.62
72126;SHT31;59999;51.676;22.650;2022-09-01T15:41:44;23.57;38.00
72126;SHT31;59999;51.676;22.650;2022-09-01T15:44:10;23.59;37.73
72126;SHT31;59999;51.676;22.650;2022-09-01T15:46:37;23.24;38.28
72126;SHT31;59999;51.676;22.650;2022-09-01T15:49:07;23.27;37.86
72126;SHT31;59999;51.676;22.650;2022-09-01T15:51:35;23.40;38.54
72126;SHT31;59999;51.676;22.650;2022-09-01T15:56:35;23.78;37.14
72126;SHT31;59999;51.676;22.650;2022-09-01T15:59:03;23.89;36.71
72126;SHT31;59999;51.676;22.650;2022-09-01T16:01:33;23.79;36.99
72126;SHT31;59999;51.676;22.650;2022-09-01T16:04:00;23.57;37.53
72126;SHT31;59999;51.676;22.650;2022-09-01T16:06:26;23.26;37.61
72126;SHT31;59999;51.676;22.650;2022-09-01T16:08:53;23.11;39.18
72126;SHT31;59999;51.676;22.650;2022-09-01T16:11:21;22.96;39.40
72126;SHT31;59999;51.676;22.650;2022-09-01T16:13:48;22.59;38.71
72126;SHT31;59999;51.676;22.650;2022-09-01T16:22:19;20.06;43.68
72126;SHT31;59999;51.676;22.650;2022-09-01T16:24:49;19.51;46.06
72126;SHT31;59999;51.676;22.650;2022-09-01T16:27:21;19.11;46.70
72126;SHT31;59999;51.676;22.650;2022-09-01T16:29:54;18.79;47.18
72126;SHT31;59999;51.676;22.650;2022-09-01T16:32:21;18.52;47.92
72126;SHT31;59999;51.676;22.650;2022-09-01T16:34:52;18.30;48.60
72126;SHT31;59999;51.676;22.650;2022-09-01T16:37:47;18.10;49.14
72126;SHT31;59999;51.676;22.650;2022-09-01T16:43:37;17.72;50.75
72126;SHT31;59999;51.676;22.650;2022-09-01T16:57:06;16.91;53.45
72126;SHT31;59999;51.676;22.650;2022-09-01T17:05:07;16.50;55.29
72126;SHT31;59999;51.676;22.650;2022-09-01T17:07:52;16.38;55.54
72126;SHT31;59999;51.676;22.650;2022-09-01T17:13:18;16.15;56.36
72126;SHT31;59999;51.676;22.650;2022-09-01T17:15:58;16.05;57.10
72126;SHT31;59999;51.676;22.650;2022-09-01T17:18:53;15.95;57.69
72126;SHT31;59999;51.676;22.650;2022-09-01T17:21:42;15.82;58.82
72126;SHT31;59999;51.676;22.650;2022-09-01T17:27:05;15.58;60.37